createdAt,value
2019-05-15T00:00:39.494Z,86.40
2019-05-15T00:03:08.678Z,87.10
2019-05-15T00:05:39.138Z,86.60
2019-05-15T00:08:09.235Z,86.60
2019-05-15T00:10:39.214Z,86.30
2019-05-15T00:13:09.374Z,86.30
2019-05-15T00:15:40.150Z,86.80
2019-05-15T00:18:09.360Z,87.20
2019-05-15T00:20:39.504Z,87.10
2019-05-15T00:23:08.654Z,86.60
2019-05-15T00:25:39.373Z,87.20
2019-05-15T00:28:09.446Z,87.40
2019-05-15T00:30:38.684Z,87.40
2019-05-15T00:33:08.946Z,87.30
2019-05-15T00:35:39.393Z,87.20
2019-05-15T00:38:09.358Z,87.60
2019-05-15T00:40:39.382Z,87.50
2019-05-15T00:43:08.923Z,87.60
2019-05-15T00:45:38.891Z,87.50
2019-05-15T00:48:08.819Z,87.90
2019-05-15T00:50:39.339Z,88.40
2019-05-15T00:53:09.452Z,88.80
2019-05-15T00:55:39.509Z,89.00
2019-05-15T00:58:08.741Z,89.20
2019-05-15T01:00:40.529Z,89.50
2019-05-15T01:03:09.319Z,88.90
2019-05-15T01:05:38.776Z,88.60
2019-05-15T01:08:08.195Z,88.90
2019-05-15T01:10:38.588Z,89.40
2019-05-15T01:13:08.399Z,89.90
2019-05-15T01:15:38.661Z,88.80
2019-05-15T01:18:09.286Z,89.30
2019-05-15T01:20:39.098Z,89.40
2019-05-15T01:23:08.828Z,89.30
2019-05-15T01:25:38.945Z,89.30
2019-05-15T01:28:09.371Z,89.20
2019-05-15T01:30:39.271Z,89.30
2019-05-15T01:33:08.905Z,89.30
2019-05-15T01:35:38.262Z,89.40
2019-05-15T01:38:08.290Z,89.20
2019-05-15T01:40:38.692Z,89.50
2019-05-15T01:43:09.154Z,89.70
2019-05-15T01:45:39.330Z,90.00
2019-05-15T01:48:08.230Z,90.10
2019-05-15T01:50:38.708Z,90.20
2019-05-15T01:53:08.207Z,90.30
2019-05-15T01:55:39.572Z,90.30
2019-05-15T01:58:09.085Z,90.40
2019-05-15T02:00:39.141Z,90.50
2019-05-15T02:03:09.845Z,90.70
2019-05-15T02:05:39.254Z,90.70
2019-05-15T02:08:08.609Z,90.60
2019-05-15T02:10:39.099Z,90.60
2019-05-15T02:13:08.568Z,90.40
2019-05-15T02:15:39.571Z,90.40
2019-05-15T02:18:08.701Z,90.60
2019-05-15T02:20:38.891Z,90.60
2019-05-15T02:23:11.769Z,90.50
2019-05-15T02:25:39.099Z,90.50
2019-05-15T02:28:09.398Z,90.50
2019-05-15T02:30:40.711Z,90.70
2019-05-15T02:33:10.649Z,90.80
2019-05-15T02:35:39.980Z,90.70
2019-05-15T02:38:10.304Z,90.50
2019-05-15T02:40:40.779Z,90.60
2019-05-15T02:43:10.165Z,90.70
2019-05-15T02:45:42.118Z,90.50
2019-05-15T02:48:09.537Z,90.50
2019-05-15T02:50:39.251Z,90.60
2019-05-15T02:53:09.915Z,90.80
2019-05-15T02:55:40.182Z,90.70
2019-05-15T02:58:09.920Z,90.60
2019-05-15T03:00:47.303Z,90.60
2019-05-15T03:03:10.291Z,90.50
2019-05-15T03:05:40.845Z,90.60
2019-05-15T03:08:09.829Z,90.80
2019-05-15T03:10:40.684Z,90.70
2019-05-15T03:13:09.751Z,90.80
2019-05-15T03:15:40.590Z,90.60
2019-05-15T03:18:10.050Z,91.10
2019-05-15T03:20:39.981Z,90.80
2019-05-15T03:23:09.706Z,90.70
2019-05-15T03:25:40.350Z,90.70
2019-05-15T03:28:10.605Z,90.70
2019-05-15T03:31:06.686Z,90.80
2019-05-15T03:33:17.685Z,91.00
2019-05-15T03:35:44.445Z,91.40
2019-05-15T03:38:12.862Z,91.00
2019-05-15T03:40:41.501Z,91.00
2019-05-15T03:43:10.136Z,90.90
2019-05-15T03:45:40.527Z,90.80
2019-05-15T03:48:09.530Z,90.90
2019-05-15T03:50:40.128Z,90.90
2019-05-15T03:53:10.201Z,91.00
2019-05-15T03:55:40.507Z,91.00
2019-05-15T03:58:10.069Z,91.00
2019-05-15T04:00:39.747Z,90.80
2019-05-15T04:03:10.826Z,90.70
2019-05-15T04:05:39.588Z,90.60
2019-05-15T04:08:10.986Z,90.50
2019-05-15T04:10:40.339Z,90.40
2019-05-15T04:13:09.555Z,90.60
2019-05-15T04:15:39.596Z,90.60
2019-05-15T04:18:09.426Z,90.60
2019-05-15T04:20:40.335Z,90.70
2019-05-15T04:23:10.223Z,90.60
2019-05-15T04:25:40.011Z,90.80
2019-05-15T04:28:11.236Z,90.70
2019-05-15T04:30:39.826Z,90.80
2019-05-15T04:33:09.599Z,90.60
2019-05-15T04:35:40.656Z,90.70
2019-05-15T04:38:09.785Z,90.70
2019-05-15T04:40:39.707Z,90.70
2019-05-15T04:43:10.800Z,90.70
2019-05-15T04:45:39.974Z,90.70
2019-05-15T04:48:10.563Z,90.60
2019-05-15T04:50:40.172Z,90.50
2019-05-15T04:53:10.526Z,90.60
2019-05-15T04:55:40.247Z,90.40
2019-05-15T04:58:10.237Z,90.20
2019-05-15T05:00:51.006Z,90.00
2019-05-15T05:03:20.440Z,90.10
2019-05-15T05:05:50.547Z,90.10
2019-05-15T05:08:20.544Z,90.00
2019-05-15T05:10:49.979Z,89.70
2019-05-15T05:13:19.933Z,89.40
2019-05-15T05:15:50.107Z,89.30
2019-05-15T05:18:19.380Z,88.70
2019-05-15T05:20:48.830Z,88.40
2019-05-15T05:23:19.635Z,88.00
2019-05-15T05:25:49.323Z,87.40
2019-05-15T05:28:18.285Z,87.10
2019-05-15T05:30:48.497Z,86.10
2019-05-15T05:33:18.510Z,85.30
2019-05-15T05:35:48.558Z,84.90
2019-05-15T05:38:19.163Z,84.30
2019-05-15T05:40:49.712Z,83.40
2019-05-15T05:43:19.744Z,82.80
2019-05-15T05:45:49.362Z,82.80
2019-05-15T05:48:19.197Z,81.30
2019-05-15T05:50:49.642Z,81.20
2019-05-15T05:53:20.858Z,81.20
2019-05-15T05:55:49.953Z,81.50
2019-05-15T05:58:19.610Z,81.50
2019-05-15T06:00:50.802Z,80.90
2019-05-15T06:03:19.961Z,80.80
2019-05-15T06:05:49.446Z,80.30
2019-05-15T06:08:19.552Z,80.20
2019-05-15T06:10:49.862Z,79.50
2019-05-15T06:13:19.614Z,79.00
2019-05-15T06:15:49.106Z,78.60
2019-05-15T06:21:53.777Z,77.30
2019-05-15T06:24:13.155Z,76.40
2019-05-15T06:26:41.154Z,75.70
2019-05-15T06:29:09.735Z,75.40
2019-05-15T06:31:38.814Z,75.30
2019-05-15T06:37:02.751Z,74.70
2019-05-15T06:39:31.368Z,72.40
2019-05-15T06:42:00.051Z,71.90
2019-05-15T06:44:28.632Z,70.70
2019-05-15T06:46:58.750Z,69.50
2019-05-15T06:49:28.643Z,68.80
2019-05-15T06:51:58.132Z,69.20
2019-05-15T06:54:28.425Z,68.90
2019-05-15T06:56:58.372Z,66.10
2019-05-15T06:59:28.670Z,66.40
2019-05-15T07:01:59.419Z,64.80
2019-05-15T07:04:28.828Z,63.20
2019-05-15T07:06:58.436Z,63.60
2019-05-15T07:09:28.577Z,64.30
2019-05-15T07:11:59.085Z,63.40
2019-05-15T07:14:28.837Z,63.00
2019-05-15T07:16:59.284Z,63.30
2019-05-15T07:19:28.433Z,62.60
2019-05-15T07:21:58.092Z,61.70
2019-05-15T07:24:28.957Z,61.70
2019-05-15T07:26:59.167Z,60.90
2019-05-15T07:29:29.249Z,61.60
2019-05-15T07:31:58.619Z,60.50
2019-05-15T07:34:28.361Z,60.60
2019-05-15T07:36:59.186Z,59.90
2019-05-15T07:39:28.887Z,59.10
2019-05-15T07:41:57.896Z,58.70
2019-05-15T07:44:28.239Z,57.00
2019-05-15T07:46:58.404Z,56.40
2019-05-15T07:49:28.878Z,56.90
2019-05-15T07:51:59.159Z,56.50
2019-05-15T07:54:28.825Z,56.50
2019-05-15T07:56:58.242Z,56.30
2019-05-15T07:59:28.001Z,56.00
2019-05-15T08:01:58.175Z,55.20
2019-05-15T08:04:30.520Z,55.30
2019-05-15T08:06:59.078Z,54.10
2019-05-15T08:09:28.363Z,54.50
2019-05-15T08:12:00.205Z,54.30
2019-05-15T08:14:29.041Z,53.90
2019-05-15T08:16:59.112Z,53.30
2019-05-15T08:19:28.925Z,53.20
2019-05-15T08:21:58.268Z,52.70
2019-05-15T08:24:29.762Z,52.00
2019-05-15T08:26:58.134Z,51.70
2019-05-15T08:29:28.813Z,51.70
2019-05-15T08:31:58.927Z,51.90
2019-05-15T08:34:28.229Z,51.30
2019-05-15T08:36:59.012Z,50.50
2019-05-15T08:39:28.477Z,50.30
2019-05-15T08:41:58.476Z,50.10
2019-05-15T08:44:29.383Z,50.00
2019-05-15T08:46:58.827Z,49.80
2019-05-15T08:49:28.361Z,48.70
2019-05-15T08:51:58.424Z,48.40
2019-05-15T08:54:29.064Z,50.00
2019-05-15T08:56:59.169Z,49.90
2019-05-15T08:59:29.434Z,48.80
2019-05-15T09:01:58.335Z,48.40
2019-05-15T09:04:33.874Z,48.40
2019-05-15T09:07:01.028Z,47.60
2019-05-15T09:09:28.756Z,47.60
2019-05-15T09:11:58.475Z,46.40
2019-05-15T09:14:28.619Z,45.90
2019-05-15T09:16:58.237Z,46.20
2019-05-15T09:19:28.123Z,46.40
2019-05-15T09:21:58.460Z,45.50
2019-05-15T09:24:28.652Z,43.90
2019-05-15T09:26:59.470Z,44.50
2019-05-15T09:29:28.526Z,45.10
2019-05-15T09:31:58.809Z,44.50
2019-05-15T09:34:45.041Z,43.90
2019-05-15T09:36:59.941Z,43.50
2019-05-15T09:39:28.661Z,43.30
2019-05-15T09:41:57.924Z,42.60
2019-05-15T09:44:28.343Z,42.40
2019-05-15T09:46:58.413Z,41.60
2019-05-15T09:49:28.582Z,41.40
2019-05-15T09:51:58.535Z,41.40
2019-05-15T09:54:29.175Z,40.50
2019-05-15T09:56:58.525Z,40.90
2019-05-15T09:59:28.114Z,39.20
2019-05-15T10:01:58.899Z,38.80
2019-05-15T10:04:28.653Z,37.90
2019-05-15T10:06:57.803Z,37.40
2019-05-15T10:09:28.424Z,38.00
2019-05-15T10:11:56.811Z,37.10
2019-05-15T10:14:26.503Z,37.80
2019-05-15T10:16:55.110Z,38.60
2019-05-15T10:19:23.824Z,39.80
2019-05-15T10:21:53.243Z,39.00
2019-05-15T10:24:22.114Z,38.40
2019-05-15T10:26:50.663Z,38.20
2019-05-15T10:29:19.286Z,36.60
2019-05-15T10:31:48.331Z,37.30
2019-05-15T10:34:18.293Z,38.70
2019-05-15T10:36:49.377Z,38.50
2019-05-15T10:39:18.188Z,38.30
2019-05-15T10:41:48.268Z,37.30
2019-05-15T10:44:18.135Z,37.20
2019-05-15T10:46:48.357Z,37.10
2019-05-15T10:49:18.920Z,36.30
2019-05-15T10:51:47.290Z,35.90
2019-05-15T10:54:15.885Z,37.60
2019-05-15T10:56:44.520Z,36.30
2019-05-15T10:59:13.154Z,36.80
2019-05-15T11:01:41.789Z,39.10
2019-05-15T11:04:10.336Z,41.90
2019-05-15T11:06:38.931Z,43.10
2019-05-15T11:09:08.399Z,41.30
2019-05-15T11:11:37.442Z,41.10
2019-05-15T11:14:08.844Z,40.90
2019-05-15T11:16:38.873Z,40.80
2019-05-15T11:19:08.043Z,40.90
2019-05-15T11:21:37.036Z,40.80
2019-05-15T11:24:05.755Z,40.00
2019-05-15T11:26:34.301Z,40.60
2019-05-15T11:29:02.868Z,42.20
2019-05-15T11:31:31.438Z,43.50
2019-05-15T11:33:59.991Z,43.50
2019-05-15T11:36:28.930Z,43.00
2019-05-15T11:38:57.515Z,42.10
2019-05-15T11:41:29.208Z,41.20
2019-05-15T11:43:56.304Z,42.70
2019-05-15T11:46:25.874Z,45.00
2019-05-15T11:48:55.075Z,45.20
2019-05-15T11:51:23.722Z,45.90
2019-05-15T11:53:52.292Z,46.50
2019-05-15T11:56:20.870Z,46.50
2019-05-15T11:58:49.421Z,44.70
2019-05-15T12:01:19.170Z,42.70
2019-05-15T12:03:48.717Z,43.50
2019-05-15T12:06:22.448Z,43.70
2019-05-15T12:08:47.829Z,41.20
2019-05-15T12:11:31.861Z,39.70
2019-05-15T12:13:46.671Z,39.70
2019-05-15T12:16:15.375Z,40.00
2019-05-15T12:18:43.946Z,41.50
2019-05-15T12:21:12.564Z,42.70
2019-05-15T12:23:41.591Z,43.10
2019-05-15T12:26:10.153Z,44.20
2019-05-15T12:28:40.593Z,44.30
2019-05-15T12:31:09.175Z,44.80
2019-05-15T12:33:38.367Z,44.50
2019-05-15T12:36:10.686Z,44.60
2019-05-15T12:38:39.708Z,42.50
2019-05-15T13:01:18.365Z,39.30
2019-05-15T13:03:48.652Z,37.10
2019-05-15T13:06:19.244Z,36.20
2019-05-15T13:08:48.901Z,33.10
2019-05-15T13:11:18.195Z,34.00
2019-05-15T13:13:48.448Z,31.80
2019-05-15T13:16:18.793Z,31.90
2019-05-15T13:18:48.064Z,33.00
2019-05-15T13:21:20.886Z,31.60
2019-05-15T13:23:48.110Z,30.70
2019-05-15T13:26:23.628Z,32.00
2019-05-15T13:28:48.866Z,33.90
2019-05-15T13:31:19.128Z,37.10
2019-05-15T13:33:48.194Z,38.10
2019-05-15T13:36:19.700Z,39.10
2019-05-15T13:38:48.267Z,40.00
2019-05-15T13:41:18.974Z,41.80
2019-05-15T13:43:49.382Z,42.70
2019-05-15T13:46:20.719Z,43.40
2019-05-15T13:48:49.077Z,42.60
2019-05-15T13:51:18.347Z,41.80
2019-05-15T13:53:49.017Z,41.10
2019-05-15T13:56:18.229Z,40.50
2019-05-15T13:58:48.151Z,41.60
2019-05-15T14:01:19.238Z,41.50
2019-05-15T14:03:48.288Z,41.80
2019-05-15T14:06:19.179Z,42.70
2019-05-15T14:08:48.770Z,42.60
2019-05-15T14:11:21.724Z,41.50
2019-05-15T14:13:48.695Z,40.60
2019-05-15T14:16:19.244Z,39.80
2019-05-15T14:18:48.043Z,39.90
2019-05-15T14:21:18.412Z,40.00
2019-05-15T14:23:47.857Z,40.00
2019-05-15T14:26:22.451Z,40.10
2019-05-15T14:28:48.131Z,40.70
2019-05-15T14:31:18.315Z,41.20
2019-05-15T14:33:48.798Z,41.60
2019-05-15T14:36:18.374Z,42.10
2019-05-15T14:38:48.514Z,41.60
2019-05-15T14:41:19.027Z,41.20
2019-05-15T14:43:48.424Z,40.30
2019-05-15T14:46:20.667Z,39.40
2019-05-15T14:48:49.365Z,40.10
2019-05-15T14:51:19.234Z,40.30
2019-05-15T14:53:49.004Z,40.30
2019-05-15T14:56:18.525Z,39.50
2019-05-15T14:58:48.125Z,39.90
2019-05-15T15:01:18.527Z,40.10
2019-05-15T15:03:48.791Z,39.10
2019-05-15T15:06:18.154Z,39.60
2019-05-15T15:08:48.762Z,39.50
2019-05-15T15:11:17.950Z,39.40
2019-05-15T15:13:46.575Z,40.10
2019-05-15T15:16:15.140Z,41.90
2019-05-15T15:18:43.714Z,42.70
2019-05-15T15:21:13.329Z,43.40
2019-05-15T15:23:42.302Z,42.80
2019-05-15T15:26:10.859Z,37.90
2019-05-15T15:28:40.241Z,36.20
2019-05-15T15:31:09.158Z,33.70
2019-05-15T15:33:39.215Z,32.60
2019-05-15T15:36:08.807Z,32.20
2019-05-15T15:38:43.391Z,31.30
2019-05-15T15:41:08.544Z,30.00
2019-05-15T15:43:38.735Z,29.90
2019-05-15T15:46:08.592Z,29.40
2019-05-15T15:48:39.036Z,29.30
2019-05-15T15:51:09.092Z,28.80
2019-05-15T15:53:39.054Z,28.10
2019-05-15T15:56:10.636Z,28.50
2019-05-15T15:58:38.473Z,27.40
2019-05-15T16:01:09.054Z,27.20
2019-05-15T16:03:37.990Z,26.70
2019-05-15T16:06:06.745Z,26.60
2019-05-15T16:08:49.189Z,27.20
2019-05-15T16:11:07.958Z,30.30
2019-05-15T16:13:35.808Z,34.60
2019-05-15T16:16:08.578Z,36.90
2019-05-15T16:18:38.349Z,37.40
2019-05-15T16:21:08.182Z,37.50
2019-05-15T16:23:38.608Z,33.30
2019-05-15T16:26:09.314Z,29.90
2019-05-15T16:28:38.796Z,27.90
2019-05-15T16:31:08.070Z,27.20
2019-05-15T16:33:39.051Z,28.30
2019-05-15T16:36:08.810Z,28.30
2019-05-15T16:38:38.998Z,27.50
2019-05-15T16:41:09.012Z,26.70
2019-05-15T16:43:38.055Z,26.10
2019-05-15T16:46:08.935Z,26.70
2019-05-15T16:48:38.987Z,27.40
2019-05-15T16:51:09.262Z,28.50
2019-05-15T16:53:38.282Z,29.30
2019-05-15T16:56:07.170Z,31.20
2019-05-15T16:58:38.234Z,29.60
2019-05-15T17:01:06.058Z,30.90
2019-05-15T17:03:34.655Z,30.20
2019-05-15T17:06:03.379Z,30.30
2019-05-15T17:08:32.388Z,29.40
2019-05-15T17:11:01.080Z,29.50
2019-05-15T17:13:29.920Z,28.40
2019-05-15T17:15:58.593Z,29.60
2019-05-15T17:18:27.300Z,29.80
2019-05-15T17:20:56.185Z,30.20
2019-05-15T17:23:24.764Z,30.50
2019-05-15T17:25:58.143Z,30.70
2019-05-15T17:28:28.811Z,30.60
2019-05-15T17:30:58.400Z,30.50
2019-05-15T17:33:28.866Z,28.70
2019-05-15T17:35:58.018Z,28.60
2019-05-15T17:38:28.626Z,28.70
2019-05-15T17:40:57.824Z,29.90
2019-05-15T17:43:28.745Z,30.10
2019-05-15T17:45:58.238Z,31.80
2019-05-15T17:48:28.865Z,35.80
2019-05-15T17:50:59.139Z,37.70
2019-05-15T17:53:28.823Z,39.30
2019-05-15T17:55:58.754Z,39.60
2019-05-15T17:58:28.794Z,40.90
2019-05-15T18:00:59.557Z,40.90
2019-05-15T18:03:28.787Z,39.90
2019-05-15T18:05:59.138Z,40.50
2019-05-15T18:08:28.681Z,41.10
2019-05-15T18:10:58.708Z,42.00
2019-05-15T18:13:28.758Z,42.30
2019-05-15T18:16:03.363Z,42.90
2019-05-15T18:18:27.595Z,43.50
2019-05-15T18:20:58.170Z,43.70
2019-05-15T18:23:26.533Z,44.00
2019-05-15T18:25:55.396Z,43.20
2019-05-15T18:28:24.083Z,43.10
2019-05-15T18:30:52.633Z,43.30
2019-05-15T18:33:21.189Z,43.20
2019-05-15T18:35:51.182Z,42.90
2019-05-15T18:38:19.764Z,42.90
2019-05-15T18:40:48.830Z,42.80
2019-05-15T18:43:18.193Z,42.70
2019-05-15T18:45:47.709Z,43.00
2019-05-15T18:48:17.877Z,43.20
2019-05-15T18:50:48.208Z,43.10
2019-05-15T18:53:17.004Z,43.40
2019-05-15T18:55:45.569Z,43.80
2019-05-15T18:58:14.271Z,44.50
2019-05-15T19:00:42.911Z,45.20
2019-05-15T19:03:19.517Z,45.80
2019-05-15T19:05:41.788Z,46.30
2019-05-15T19:08:10.434Z,46.40
2019-05-15T19:10:39.025Z,46.80
2019-05-15T19:13:08.486Z,47.20
2019-05-15T19:15:38.072Z,47.60
2019-05-15T19:18:08.090Z,47.70
2019-05-15T19:20:38.947Z,48.00
2019-05-15T19:23:07.986Z,48.20
2019-05-15T19:25:37.658Z,48.50
2019-05-15T19:28:08.466Z,48.60
2019-05-15T19:30:38.711Z,48.90
2019-05-15T19:33:07.847Z,49.00
2019-05-15T19:35:38.708Z,49.20
2019-05-15T19:38:07.191Z,49.40
2019-05-15T19:40:35.756Z,49.70
2019-05-15T19:43:04.632Z,49.90
2019-05-15T19:45:33.303Z,50.30
2019-05-15T19:48:02.353Z,50.40
2019-05-15T19:50:31.049Z,50.30
2019-05-15T19:52:59.610Z,50.70
2019-05-15T19:55:28.296Z,50.60
2019-05-15T19:57:58.770Z,50.90
2019-05-15T20:00:28.491Z,50.80
2019-05-15T20:02:58.109Z,50.90
2019-05-15T20:05:29.007Z,50.80
2019-05-15T20:07:58.919Z,50.80
2019-05-15T20:10:29.284Z,51.00
2019-05-15T20:12:59.347Z,51.20
2019-05-15T20:15:28.677Z,51.30
2019-05-15T20:17:57.948Z,51.20
2019-05-15T20:20:28.362Z,51.50
2019-05-15T20:22:59.912Z,51.90
2019-05-15T20:25:27.945Z,52.30
2019-05-15T20:27:56.607Z,52.50
2019-05-15T20:30:25.373Z,52.50
2019-05-15T20:32:54.098Z,53.10
2019-05-15T20:35:22.731Z,54.00
2019-05-15T20:37:51.990Z,53.80
2019-05-15T20:40:20.706Z,54.60
2019-05-15T20:42:49.354Z,54.50
2019-05-15T20:45:18.718Z,54.40
2019-05-15T20:47:47.547Z,54.20
2019-05-15T20:50:19.083Z,54.10
2019-05-15T20:52:48.815Z,54.20
2019-05-15T20:55:16.930Z,54.40
2019-05-15T20:57:47.747Z,53.80
2019-05-15T21:00:19.202Z,54.20
2019-05-15T21:02:48.626Z,54.50
2019-05-15T21:05:18.644Z,55.00
2019-05-15T21:07:48.576Z,54.80
2019-05-15T21:10:21.466Z,54.90
2019-05-15T21:12:48.937Z,55.00
2019-05-15T21:15:21.544Z,55.10
2019-05-15T21:17:57.586Z,55.50
2019-05-15T21:20:19.081Z,55.90
2019-05-15T21:22:49.300Z,56.00
2019-05-15T21:25:19.685Z,56.20
2019-05-15T21:27:48.736Z,56.40
2019-05-15T21:30:18.946Z,55.80
2019-05-15T21:32:49.371Z,56.20
2019-05-15T21:35:18.527Z,56.80
2019-05-15T21:37:48.848Z,57.40
2019-05-15T21:40:17.544Z,57.20
2019-05-15T21:42:48.881Z,57.50
2019-05-15T21:45:18.282Z,57.80
2019-05-15T21:47:47.031Z,57.60
2019-05-15T21:50:15.941Z,57.70
2019-05-15T21:52:44.488Z,58.40
2019-05-15T21:55:13.214Z,57.80
2019-05-15T21:57:42.350Z,57.40
2019-05-15T22:00:34.058Z,57.60
2019-05-15T22:03:03.164Z,57.90
2019-05-15T22:05:31.774Z,57.90
2019-05-15T22:08:00.435Z,58.20
2019-05-15T22:10:29.450Z,58.60
2019-05-15T22:12:58.903Z,59.30
2019-05-15T22:15:28.688Z,59.50
2019-05-15T22:17:57.982Z,60.00
2019-05-15T22:20:29.987Z,60.10
2019-05-15T22:22:59.603Z,60.40
2019-05-15T22:25:28.008Z,60.90
2019-05-15T22:27:58.938Z,60.90
2019-05-15T22:30:29.891Z,61.20
2019-05-15T22:32:58.766Z,61.50
2019-05-15T22:35:29.440Z,61.80
2019-05-15T22:37:58.640Z,61.90
2019-05-15T22:40:28.986Z,62.30
2019-05-15T22:42:59.291Z,62.60
2019-05-15T22:45:28.597Z,63.40
2019-05-15T22:47:58.506Z,62.80
2019-05-15T22:50:28.096Z,62.90
2019-05-15T22:52:58.622Z,62.60
2019-05-15T22:55:28.939Z,63.10
2019-05-15T22:57:58.631Z,63.60
2019-05-15T23:00:28.964Z,62.60
2019-05-15T23:02:58.316Z,62.10
2019-05-15T23:05:29.334Z,62.00
2019-05-15T23:07:58.917Z,61.70
2019-05-15T23:10:29.262Z,61.90
2019-05-15T23:12:58.252Z,62.40
2019-05-15T23:15:28.160Z,62.30
2019-05-15T23:17:58.199Z,62.80
2019-05-15T23:20:28.525Z,63.00
2019-05-15T23:22:58.396Z,63.30
2019-05-15T23:25:29.041Z,62.30
2019-05-15T23:27:58.155Z,62.50
2019-05-15T23:30:28.787Z,62.30
2019-05-15T23:32:58.205Z,62.60
2019-05-15T23:35:35.666Z,62.70
2019-05-15T23:37:58.206Z,62.60
2019-05-15T23:40:28.730Z,62.60
2019-05-15T23:42:57.156Z,62.90
2019-05-15T23:45:25.714Z,62.80
2019-05-15T23:47:54.430Z,62.60
2019-05-15T23:50:23.022Z,62.50
2019-05-15T23:52:51.618Z,61.40
2019-05-15T23:55:20.310Z,61.90
2019-05-15T23:57:48.874Z,59.90
